sensor_id;sensor_type;location;lat;lon;timestamp;temperature;humidity
77803;DHT22;66993;48.256;16.422;2023-04-06T00:00:14;1.2;61.0
77803;DHT22;66993;48.256;16.422;2023-04-06T00:05:14;1.1;61.0
77803;DHT22;66993;48.256;16.422;2023-04-06T00:10:14;0.9;61.0
77803;DHT22;66993;48.256;16.422;2023-04-06T00:15:14;0.9;62.0
77803;DHT22;66993;48.256;16.422;2023-04-06T00:20:14;0.9;62.0
77803;DHT22;66993;48.256;16.422;2023-04-06T00:25:14;0.9;62.0
77803;DHT22;66993;48.256;16.422;2023-04-06T00:30:14;0.8;62.0
77803;DHT22;66993;48.256;16.422;2023-04-06T00:35:14;0.7;62.0
77803;DHT22;66993;48.256;16.422;2023-04-06T00:40:14;0.7;62.0
77803;DHT22;66993;48.256;16.422;2023-04-06T00:45:14;0.7;63.0
77803;DHT22;66993;48.256;16.422;2023-04-06T00:50:14;0.7;63.0
77803;DHT22;66993;48.256;16.422;2023-04-06T00:55:14;0.6;63.0
77803;DHT22;66993;48.256;16.422;2023-04-06T01:00:14;0.4;63.0
77803;DHT22;66993;48.256;16.422;2023-04-06T01:05:14;0.5;63.0
77803;DHT22;66993;48.256;16.422;2023-04-06T01:10:22;0.6;63.0
77803;DHT22;66993;48.256;16.422;2023-04-06T01:15:14;0.6;63.0
77803;DHT22;66993;48.256;16.422;2023-04-06T01:20:14;0.6;63.0
77803;DHT22;66993;48.256;16.422;2023-04-06T01:25:14;0.6;63.0
77803;DHT22;66993;48.256;16.422;2023-04-06T01:30:14;0.5;63.0
77803;DHT22;66993;48.256;16.422;2023-04-06T01:35:14;0.5;63.0
77803;DHT22;66993;48.256;16.422;2023-04-06T01:40:14;0.4;63.0
77803;DHT22;66993;48.256;16.422;2023-04-06T01:45:14;0.4;63.0
77803;DHT22;66993;48.256;16.422;2023-04-06T01:50:14;0.4;63.0
77803;DHT22;66993;48.256;16.422;2023-04-06T01:55:14;0.4;63.0
77803;DHT22;66993;48.256;16.422;2023-04-06T02:00:14;0.4;63.0
77803;DHT22;66993;48.256;16.422;2023-04-06T02:05:14;0.4;63.0
77803;DHT22;66993;48.256;16.422;2023-04-06T02:10:14;0.4;63.0
77803;DHT22;66993;48.256;16.422;2023-04-06T02:15:14;0.5;63.0
77803;DHT22;66993;48.256;16.422;2023-04-06T02:20:14;0.3;63.0
77803;DHT22;66993;48.256;16.422;2023-04-06T02:25:14;0.2;63.0
77803;DHT22;66993;48.256;16.422;2023-04-06T02:30:14;0.2;63.0
77803;DHT22;66993;48.256;16.422;2023-04-06T02:35:14;0.2;63.0
77803;DHT22;66993;48.256;16.422;2023-04-06T02:40:14;0.3;63.0
77803;DHT22;66993;48.256;16.422;2023-04-06T02:45:14;0.2;63.0
77803;DHT22;66993;48.256;16.422;2023-04-06T02:50:14;0.3;63.0
77803;DHT22;66993;48.256;16.422;2023-04-06T02:55:14;0.2;64.0
77803;DHT22;66993;48.256;16.422;2023-04-06T03:00:14;0.2;64.0
77803;DHT22;66993;48.256;16.422;2023-04-06T03:05:14;0.2;64.0
77803;DHT22;66993;48.256;16.422;2023-04-06T03:10:14;0.2;64.0
77803;DHT22;66993;48.256;16.422;2023-04-06T03:15:14;0.0;64.0
77803;DHT22;66993;48.256;16.422;2023-04-06T03:20:14;0.2;64.0
77803;DHT22;66993;48.256;16.422;2023-04-06T03:25:14;0.3;64.0
77803;DHT22;66993;48.256;16.422;2023-04-06T03:30:14;0.3;64.0
77803;DHT22;66993;48.256;16.422;2023-04-06T03:35:14;0.3;64.0
77803;DHT22;66993;48.256;16.422;2023-04-06T03:40:14;0.3;64.0
77803;DHT22;66993;48.256;16.422;2023-04-06T03:45:14;0.2;64.0
77803;DHT22;66993;48.256;16.422;2023-04-06T03:50:14;0.1;63.0
77803;DHT22;66993;48.256;16.422;2023-04-06T03:55:14;0.2;64.0
77803;DHT22;66993;48.256;16.422;2023-04-06T04:00:14;0.0;64.0
77803;DHT22;66993;48.256;16.422;2023-04-06T04:05:14;0.1;64.0
77803;DHT22;66993;48.256;16.422;2023-04-06T04:10:14;0.2;64.0
77803;DHT22;66993;48.256;16.422;2023-04-06T04:15:14;0.1;64.0
77803;DHT22;66993;48.256;16.422;2023-04-06T04:20:14;0.3;64.0
77803;DHT22;66993;48.256;16.422;2023-04-06T04:25:14;0.2;64.0
77803;DHT22;66993;48.256;16.422;2023-04-06T04:30:14;0.2;64.0
77803;DHT22;66993;48.256;16.422;2023-04-06T04:35:14;0.2;64.0
77803;DHT22;66993;48.256;16.422;2023-04-06T04:40:14;0.2;64.0
77803;DHT22;66993;48.256;16.422;2023-04-06T04:45:14;0.2;64.0
77803;DHT22;66993;48.256;16.422;2023-04-06T04:50:14;0.2;64.0
77803;DHT22;66993;48.256;16.422;2023-04-06T04:55:14;0.2;64.0
77803;DHT22;66993;48.256;16.422;2023-04-06T05:00:14;0.3;64.0
77803;DHT22;66993;48.256;16.422;2023-04-06T05:05:14;0.3;64.0
77803;DHT22;66993;48.256;16.422;2023-04-06T05:10:14;0.3;64.0
77803;DHT22;66993;48.256;16.422;2023-04-06T05:15:14;0.4;64.0
77803;DHT22;66993;48.256;16.422;2023-04-06T05:20:14;0.4;64.0
77803;DHT22;66993;48.256;16.422;2023-04-06T05:25:14;0.6;64.0
77803;DHT22;66993;48.256;16.422;2023-04-06T05:30:14;0.7;64.0
77803;DHT22;66993;48.256;16.422;2023-04-06T05:35:14;0.9;64.0
77803;DHT22;66993;48.256;16.422;2023-04-06T05:40:14;1.0;64.0
77803;DHT22;66993;48.256;16.422;2023-04-06T05:45:14;1.1;64.0
77803;DHT22;66993;48.256;16.422;2023-04-06T05:50:14;1.2;63.0
77803;DHT22;66993;48.256;16.422;2023-04-06T05:55:14;1.5;62.0
77803;DHT22;66993;48.256;16.422;2023-04-06T06:00:14;1.5;62.0
77803;DHT22;66993;48.256;16.422;2023-04-06T06:05:14;1.6;62.0
77803;DHT22;66993;48.256;16.422;2023-04-06T06:10:14;1.6;62.0
77803;DHT22;66993;48.256;16.422;2023-04-06T06:15:14;1.7;60.0
77803;DHT22;66993;48.256;16.422;2023-04-06T06:20:14;1.9;60.0
77803;DHT22;66993;48.256;16.422;2023-04-06T06:25:14;2.1;59.0
77803;DHT22;66993;48.256;16.422;2023-04-06T06:30:14;2.1;59.0
77803;DHT22;66993;48.256;16.422;2023-04-06T06:35:14;2.2;59.0
77803;DHT22;66993;48.256;16.422;2023-04-06T06:40:14;2.5;57.0
77803;DHT22;66993;48.256;16.422;2023-04-06T06:45:14;2.6;57.0
77803;DHT22;66993;48.256;16.422;2023-04-06T06:50:14;2.6;57.0
77803;DHT22;66993;48.256;16.422;2023-04-06T06:55:14;2.6;57.0
77803;DHT22;66993;48.256;16.422;2023-04-06T07:00:14;2.8;56.0
77803;DHT22;66993;48.256;16.422;2023-04-06T07:05:15;3.1;56.0
77803;DHT22;66993;48.256;16.422;2023-04-06T07:10:14;3.4;55.0
77803;DHT22;66993;48.256;16.422;2023-04-06T07:15:14;3.5;53.0
77803;DHT22;66993;48.256;16.422;2023-04-06T07:20:14;3.6;53.0
77803;DHT22;66993;48.256;16.422;2023-04-06T07:25:14;3.7;52.0
77803;DHT22;66993;48.256;16.422;2023-04-06T07:30:14;4.3;51.0
77803;DHT22;66993;48.256;16.422;2023-04-06T07:35:14;4.3;50.0
77803;DHT22;66993;48.256;16.422;2023-04-06T07:40:14;4.6;49.0
77803;DHT22;66993;48.256;16.422;2023-04-06T07:45:14;4.7;48.0
77803;DHT22;66993;48.256;16.422;2023-04-06T07:50:14;4.8;48.0
77803;DHT22;66993;48.256;16.422;2023-04-06T07:55:14;4.9;47.0
77803;DHT22;66993;48.256;16.422;2023-04-06T08:00:14;4.9;47.0
77803;DHT22;66993;48.256;16.422;2023-04-06T08:05:14;5.1;47.0
77803;DHT22;66993;48.256;16.422;2023-04-06T08:10:14;5.3;49.0
77803;DHT22;66993;48.256;16.422;2023-04-06T08:15:14;5.1;50.0
77803;DHT22;66993;48.256;16.422;2023-04-06T08:20:14;5.6;50.0
77803;DHT22;66993;48.256;16.422;2023-04-06T08:25:14;5.3;52.0
77803;DHT22;66993;48.256;16.422;2023-04-06T08:30:14;5.9;53.0
77803;DHT22;66993;48.256;16.422;2023-04-06T08:35:14;5.8;53.0
77803;DHT22;66993;48.256;16.422;2023-04-06T08:40:14;5.7;53.0
77803;DHT22;66993;48.256;16.422;2023-04-06T08:45:14;5.8;53.0
77803;DHT22;66993;48.256;16.422;2023-04-06T08:50:14;6.0;53.0
77803;DHT22;66993;48.256;16.422;2023-04-06T08:55:14;6.5;54.0
77803;DHT22;66993;48.256;16.422;2023-04-06T09:00:14;6.9;54.0
77803;DHT22;66993;48.256;16.422;2023-04-06T09:05:14;7.4;53.0
77803;DHT22;66993;48.256;16.422;2023-04-06T09:10:14;6.9;52.0
77803;DHT22;66993;48.256;16.422;2023-04-06T09:15:18;7.5;51.0
77803;DHT22;66993;48.256;16.422;2023-04-06T09:20:14;7.0;50.0
77803;DHT22;66993;48.256;16.422;2023-04-06T09:25:17;7.4;50.0
77803;DHT22;66993;48.256;16.422;2023-04-06T09:30:14;8.0;50.0
77803;DHT22;66993;48.256;16.422;2023-04-06T09:35:14;7.4;50.0
77803;DHT22;66993;48.256;16.422;2023-04-06T09:40:14;7.9;50.0
77803;DHT22;66993;48.256;16.422;2023-04-06T09:45:14;8.1;49.0
77803;DHT22;66993;48.256;16.422;2023-04-06T09:50:14;8.1;49.0
77803;DHT22;66993;48.256;16.422;2023-04-06T09:55:16;8.1;48.0
77803;DHT22;66993;48.256;16.422;2023-04-06T10:00:14;8.5;47.0
77803;DHT22;66993;48.256;16.422;2023-04-06T10:05:16;9.0;46.0
77803;DHT22;66993;48.256;16.422;2023-04-06T10:10:14;9.0;46.0
77803;DHT22;66993;48.256;16.422;2023-04-06T10:15:14;8.5;45.0
77803;DHT22;66993;48.256;16.422;2023-04-06T10:20:14;9.0;43.0
77803;DHT22;66993;48.256;16.422;2023-04-06T10:25:14;9.2;43.0
77803;DHT22;66993;48.256;16.422;2023-04-06T10:30:14;9.0;42.0
77803;DHT22;66993;48.256;16.422;2023-04-06T10:35:14;9.2;41.0
77803;DHT22;66993;48.256;16.422;2023-04-06T10:40:18;9.6;41.0
77803;DHT22;66993;48.256;16.422;2023-04-06T10:45:19;9.1;41.0
77803;DHT22;66993;48.256;16.422;2023-04-06T10:50:14;8.9;40.0
77803;DHT22;66993;48.256;16.422;2023-04-06T10:55:14;9.4;39.0
77803;DHT22;66993;48.256;16.422;2023-04-06T11:00:14;9.9;32.0
77803;DHT22;66993;48.256;16.422;2023-04-06T11:05:14;9.6;31.0
77803;DHT22;66993;48.256;16.422;2023-04-06T11:10:20;9.5;32.0
77803;DHT22;66993;48.256;16.422;2023-04-06T11:15:14;10.0;33.0
77803;DHT22;66993;48.256;16.422;2023-04-06T11:20:14;9.8;29.0
77803;DHT22;66993;48.256;16.422;2023-04-06T11:25:14;9.8;26.0
77803;DHT22;66993;48.256;16.422;2023-04-06T11:30:14;10.5;26.0
77803;DHT22;66993;48.256;16.422;2023-04-06T11:35:19;10.6;24.0
77803;DHT22;66993;48.256;16.422;2023-04-06T11:40:14;11.1;20.0
77803;DHT22;66993;48.256;16.422;2023-04-06T11:45:15;10.6;23.0
77803;DHT22;66993;48.256;16.422;2023-04-06T11:50:14;10.5;25.0
77803;DHT22;66993;48.256;16.422;2023-04-06T11:55:15;10.8;28.0
77803;DHT22;66993;48.256;16.422;2023-04-06T12:00:14;10.3;29.0
77803;DHT22;66993;48.256;16.422;2023-04-06T12:05:14;10.0;29.0
77803;DHT22;66993;48.256;16.422;2023-04-06T12:10:14;10.0;29.0
77803;DHT22;66993;48.256;16.422;2023-04-06T12:15:14;11.0;30.0
77803;DHT22;66993;48.256;16.422;2023-04-06T12:20:14;10.8;30.0
77803;DHT22;66993;48.256;16.422;2023-04-06T12:25:14;10.5;29.0
77803;DHT22;66993;48.256;16.422;2023-04-06T12:30:14;11.5;30.0
77803;DHT22;66993;48.256;16.422;2023-04-06T12:35:14;10.5;29.0
77803;DHT22;66993;48.256;16.422;2023-04-06T12:40:14;10.6;30.0
77803;DHT22;66993;48.256;16.422;2023-04-06T12:45:14;10.4;30.0
77803;DHT22;66993;48.256;16.422;2023-04-06T12:50:14;10.1;30.0
77803;DHT22;66993;48.256;16.422;2023-04-06T12:55:14;10.3;30.0
77803;DHT22;66993;48.256;16.422;2023-04-06T13:00:14;10.7;31.0
77803;DHT22;66993;48.256;16.422;2023-04-06T13:05:14;11.2;32.0
77803;DHT22;66993;48.256;16.422;2023-04-06T13:10:14;11.4;32.0
77803;DHT22;66993;48.256;16.422;2023-04-06T13:15:14;11.4;31.0
77803;DHT22;66993;48.256;16.422;2023-04-06T13:20:14;11.4;31.0
77803;DHT22;66993;48.256;16.422;2023-04-06T13:25:14;11.9;31.0
77803;DHT22;66993;48.256;16.422;2023-04-06T13:30:14;12.2;31.0
77803;DHT22;66993;48.256;16.422;2023-04-06T13:35:14;12.0;30.0
77803;DHT22;66993;48.256;16.422;2023-04-06T13:40:14;12.0;30.0
77803;DHT22;66993;48.256;16.422;2023-04-06T13:45:14;12.3;30.0
77803;DHT22;66993;48.256;16.422;2023-04-06T13:50:14;11.8;29.0
77803;DHT22;66993;48.256;16.422;2023-04-06T13:55:14;11.8;30.0
77803;DHT22;66993;48.256;16.422;2023-04-06T14:00:14;12.3;31.0
77803;DHT22;66993;48.256;16.422;2023-04-06T14:05:14;11.3;30.0
77803;DHT22;66993;48.256;16.422;2023-04-06T14:10:14;11.8;31.0
77803;DHT22;66993;48.256;16.422;2023-04-06T14:15:14;11.3;30.0
77803;DHT22;66993;48.256;16.422;2023-04-06T14:20:14;11.8;31.0
77803;DHT22;66993;48.256;16.422;2023-04-06T14:25:14;11.3;31.0
77803;DHT22;66993;48.256;16.422;2023-04-06T14:30:14;11.7;31.0
77803;DHT22;66993;48.256;16.422;2023-04-06T14:35:14;11.7;31.0
77803;DHT22;66993;48.256;16.422;2023-04-06T14:40:14;11.2;30.0
77803;DHT22;66993;48.256;16.422;2023-04-06T14:45:14;12.2;31.0
77803;DHT22;66993;48.256;16.422;2023-04-06T14:50:14;11.2;31.0
77803;DHT22;66993;48.256;16.422;2023-04-06T14:55:14;11.7;31.0
77803;DHT22;66993;48.256;16.422;2023-04-06T15:00:14;11.2;30.0
77803;DHT22;66993;48.256;16.422;2023-04-06T15:05:14;11.8;30.0
77803;DHT22;66993;48.256;16.422;2023-04-06T15:10:14;11.3;30.0
77803;DHT22;66993;48.256;16.422;2023-04-06T15:15:14;11.4;30.0
77803;DHT22;66993;48.256;16.422;2023-04-06T15:20:14;10.9;30.0
77803;DHT22;66993;48.256;16.422;2023-04-06T15:25:14;11.0;30.0
77803;DHT22;66993;48.256;16.422;2023-04-06T15:30:14;11.3;30.0
77803;DHT22;66993;48.256;16.422;2023-04-06T15:35:14;11.1;31.0
77803;DHT22;66993;48.256;16.422;2023-04-06T15:40:14;11.1;31.0
77803;DHT22;66993;48.256;16.422;2023-04-06T15:45:14;10.8;31.0
77803;DHT22;66993;48.256;16.422;2023-04-06T15:50:14;10.3;32.0
77803;DHT22;66993;48.256;16.422;2023-04-06T15:55:14;10.5;32.0
77803;DHT22;66993;48.256;16.422;2023-04-06T16:00:14;10.7;32.0
77803;DHT22;66993;48.256;16.422;2023-04-06T16:05:14;10.3;32.0
77803;DHT22;66993;48.256;16.422;2023-04-06T16:10:14;10.2;32.0
77803;DHT22;66993;48.256;16.422;2023-04-06T16:15:14;10.1;32.0
77803;DHT22;66993;48.256;16.422;2023-04-06T16:20:14;10.2;32.0
77803;DHT22;66993;48.256;16.422;2023-04-06T16:25:14;10.0;33.0
77803;DHT22;66993;48.256;16.422;2023-04-06T16:30:14;10.0;33.0
77803;DHT22;66993;48.256;16.422;2023-04-06T16:35:14;9.9;33.0
77803;DHT22;66993;48.256;16.422;2023-04-06T16:40:14;9.7;33.0
77803;DHT22;66993;48.256;16.422;2023-04-06T16:45:14;9.7;33.0
77803;DHT22;66993;48.256;16.422;2023-04-06T16:50:14;9.6;33.0
77803;DHT22;66993;48.256;16.422;2023-04-06T16:55:14;9.5;33.0
77803;DHT22;66993;48.256;16.422;2023-04-06T17:00:14;9.5;33.0
77803;DHT22;66993;48.256;16.422;2023-04-06T17:05:14;9.5;33.0
77803;DHT22;66993;48.256;16.422;2023-04-06T17:10:14;9.4;34.0
77803;DHT22;66993;48.256;16.422;2023-04-06T17:15:14;9.4;34.0
77803;DHT22;66993;48.256;16.422;2023-04-06T17:20:14;9.3;34.0
77803;DHT22;66993;48.256;16.422;2023-04-06T17:25:14;9.2;34.0
77803;DHT22;66993;48.256;16.422;2023-04-06T17:30:14;9.2;34.0
77803;DHT22;66993;48.256;16.422;2023-04-06T17:35:14;9.1;36.0
77803;DHT22;66993;48.256;16.422;2023-04-06T17:40:14;9.1;36.0
77803;DHT22;66993;48.256;16.422;2023-04-06T17:45:14;9.1;36.0
77803;DHT22;66993;48.256;16.422;2023-04-06T17:50:14;9.0;36.0
77803;DHT22;66993;48.256;16.422;2023-04-06T17:55:14;8.9;36.0
77803;DHT22;66993;48.256;16.422;2023-04-06T18:00:14;8.9;36.0
77803;DHT22;66993;48.256;16.422;2023-04-06T18:05:14;8.8;36.0
77803;DHT22;66993;48.256;16.422;2023-04-06T18:10:14;8.8;36.0
77803;DHT22;66993;48.256;16.422;2023-04-06T18:15:14;8.7;36.0
77803;DHT22;66993;48.256;16.422;2023-04-06T18:20:14;8.7;37.0
77803;DHT22;66993;48.256;16.422;2023-04-06T18:25:14;8.6;37.0
77803;DHT22;66993;48.256;16.422;2023-04-06T18:30:14;8.6;37.0
77803;DHT22;66993;48.256;16.422;2023-04-06T18:35:14;8.4;37.0
77803;DHT22;66993;48.256;16.422;2023-04-06T18:40:30;8.4;38.0
77803;DHT22;66993;48.256;16.422;2023-04-06T18:45:14;8.4;38.0
77803;DHT22;66993;48.256;16.422;2023-04-06T18:50:14;8.4;38.0
77803;DHT22;66993;48.256;16.422;2023-04-06T18:55:14;8.3;38.0
77803;DHT22;66993;48.256;16.422;2023-04-06T19:00:14;8.2;38.0
77803;DHT22;66993;48.256;16.422;2023-04-06T19:05:14;8.2;39.0
77803;DHT22;66993;48.256;16.422;2023-04-06T19:10:14;8.1;39.0
77803;DHT22;66993;48.256;16.422;2023-04-06T19:15:14;8.1;39.0
77803;DHT22;66993;48.256;16.422;2023-04-06T19:20:14;8.0;39.0
77803;DHT22;66993;48.256;16.422;2023-04-06T19:25:14;8.0;40.0
77803;DHT22;66993;48.256;16.422;2023-04-06T19:30:14;8.1;40.0
77803;DHT22;66993;48.256;16.422;2023-04-06T19:35:14;8.0;40.0
77803;DHT22;66993;48.256;16.422;2023-04-06T19:40:14;8.0;40.0
77803;DHT22;66993;48.256;16.422;2023-04-06T19:45:14;7.9;40.0
77803;DHT22;66993;48.256;16.422;2023-04-06T19:50:14;7.8;40.0
77803;DHT22;66993;48.256;16.422;2023-04-06T19:55:14;7.9;40.0
77803;DHT22;66993;48.256;16.422;2023-04-06T20:00:14;7.8;40.0
77803;DHT22;66993;48.256;16.422;2023-04-06T20:05:14;7.8;41.0
77803;DHT22;66993;48.256;16.422;2023-04-06T20:10:14;7.6;41.0
77803;DHT22;66993;48.256;16.422;2023-04-06T20:15:14;7.7;41.0
77803;DHT22;66993;48.256;16.422;2023-04-06T20:20:14;7.6;41.0
77803;DHT22;66993;48.256;16.422;2023-04-06T20:25:14;7.5;41.0
77803;DHT22;66993;48.256;16.422;2023-04-06T20:30:14;7.6;42.0
77803;DHT22;66993;48.256;16.422;2023-04-06T20:35:14;7.5;42.0
77803;DHT22;66993;48.256;16.422;2023-04-06T20:40:14;7.1;43.0
77803;DHT22;66993;48.256;16.422;2023-04-06T20:45:14;7.1;44.0
77803;DHT22;66993;48.256;16.422;2023-04-06T20:50:14;7.1;44.0
77803;DHT22;66993;48.256;16.422;2023-04-06T20:55:14;6.9;45.0
77803;DHT22;66993;48.256;16.422;2023-04-06T21:00:14;6.7;45.0
77803;DHT22;66993;48.256;16.422;2023-04-06T21:05:14;6.8;45.0
77803;DHT22;66993;48.256;16.422;2023-04-06T21:10:14;6.8;45.0
77803;DHT22;66993;48.256;16.422;2023-04-06T21:15:14;6.7;46.0
77803;DHT22;66993;48.256;16.422;2023-04-06T21:20:14;6.7;46.0
77803;DHT22;66993;48.256;16.422;2023-04-06T21:25:14;6.7;46.0
77803;DHT22;66993;48.256;16.422;2023-04-06T21:30:14;6.6;46.0
77803;DHT22;66993;48.256;16.422;2023-04-06T21:35:14;6.7;46.0
77803;DHT22;66993;48.256;16.422;2023-04-06T21:40:14;6.7;46.0
77803;DHT22;66993;48.256;16.422;2023-04-06T21:45:14;6.7;47.0
77803;DHT22;66993;48.256;16.422;2023-04-06T21:50:14;6.7;47.0
77803;DHT22;66993;48.256;16.422;2023-04-06T21:55:14;6.7;47.0
77803;DHT22;66993;48.256;16.422;2023-04-06T22:00:14;6.6;47.0
77803;DHT22;66993;48.256;16.422;2023-04-06T22:05:14;6.6;47.0
77803;DHT22;66993;48.256;16.422;2023-04-06T22:10:14;6.6;47.0
77803;DHT22;66993;48.256;16.422;2023-04-06T22:15:14;6.6;48.0
77803;DHT22;66993;48.256;16.422;2023-04-06T22:20:14;6.6;48.0
77803;DHT22;66993;48.256;16.422;2023-04-06T22:25:14;6.5;48.0
77803;DHT22;66993;48.256;16.422;2023-04-06T22:30:14;6.6;48.0
77803;DHT22;66993;48.256;16.422;2023-04-06T22:35:14;6.4;48.0
77803;DHT22;66993;48.256;16.422;2023-04-06T22:40:14;6.4;48.0
77803;DHT22;66993;48.256;16.422;2023-04-06T22:45:14;6.4;48.0
77803;DHT22;66993;48.256;16.422;2023-04-06T22:50:14;6.2;48.0
77803;DHT22;66993;48.256;16.422;2023-04-06T22:55:14;6.2;48.0
77803;DHT22;66993;48.256;16.422;2023-04-06T23:00:14;6.1;49.0
77803;DHT22;66993;48.256;16.422;2023-04-06T23:05:14;6.1;49.0
77803;DHT22;66993;48.256;16.422;2023-04-06T23:10:14;6.0;49.0
77803;DHT22;66993;48.256;16.422;2023-04-06T23:15:14;5.9;49.0
77803;DHT22;66993;48.256;16.422;2023-04-06T23:20:14;5.9;49.0
77803;DHT22;66993;48.256;16.422;2023-04-06T23:25:14;5.9;49.0
77803;DHT22;66993;48.256;16.422;2023-04-06T23:30:14;5.8;49.0
77803;DHT22;66993;48.256;16.422;2023-04-06T23:35:14;5.8;49.0
77803;DHT22;66993;48.256;16.422;2023-04-06T23:40:14;5.8;50.0
77803;DHT22;66993;48.256;16.422;2023-04-06T23:45:14;5.7;49.0
77803;DHT22;66993;48.256;16.422;2023-04-06T23:50:14;5.8;50.0
77803;DHT22;66993;48.256;16.422;2023-04-06T23:55:14;5.8;50.0
